Latest Weather Observations for Busselton Airport

IDW60801

Issued at 10:03 pm WST Wednesday 8 July 2020 (issued every 10 minutes, with the page automatically refreshed every 10 minutes)

About weather observations | Map of weather stations | Latest weather observations for WA | Other Formats
Station Details ID: 009603 Name: BUSSELTON AERO Lat: -33.68 Lon: 115.40 Height: 16.3 m
Data from the previous 72 hours. | See also: Recent months at Busselton Airport
Date/Time
WST
Temp
°C
App
Temp
°C
Dew
Point
°C
Rel
Hum
%
Delta-T
°C
Wind Press
QNH
hPa
Press
MSL
hPa
Rain since
9am
mm
Dir  Spd
km/h
Gust
km/h
Spd
kts
Gust
kts
08/10:00pm 7.0 6.3 6.9 99 0.0 CALM 0 4 0 2 1025.3 1025.3 0.8
08/09:43pm 7.8 5.9 7.7 99 0.0 SSW 7 7 4 4 1025.2 1025.2 0.8
08/09:30pm 8.4 6.9 8.3 99 0.0 SSW 6 7 3 4 1025.1 1025.1 0.8
08/09:00pm 8.7 6.7 8.6 99 0.0 SSW 9 11 5 6 1024.9 1024.9 0.8
08/08:56pm 8.5 6.4 8.4 99 0.0 SSW 9 9 5 5 1024.8 1024.8 0.8
08/08:39pm 7.6 5.7 7.5 99 0.0 ESE 7 9 4 5 1024.7 1024.7 0.8
08/08:30pm 7.6 5.3 7.5 99 0.0 ESE 9 11 5 6 1024.6 1024.6 0.8
08/08:15pm 7.4 4.6 7.0 97 0.2 SE 11 11 6 6 1024.5 1024.5 0.8
08/08:00pm 8.1 6.2 7.7 97 0.2 SSE 7 9 4 5 1024.4 1024.4 0.8
08/07:52pm 8.5 6.7 8.1 97 0.2 SE 7 9 4 5 1024.4 1024.4 0.8
08/07:30pm 9.6 8.2 9.0 96 0.3 SSE 6 9 3 5 1024.3 1024.3 0.8
08/07:00pm 10.8 9.8 10.3 97 0.3 S 6 7 3 4 1024.3 1024.3 0.8
08/06:30pm 10.6 9.3 9.8 95 0.4 S 7 9 4 5 1024.1 1024.1 0.8
08/06:00pm 11.0 9.4 10.1 94 0.5 SSW 9 11 5 6 1024.0 1024.0 0.8
08/05:30pm 11.6 9.3 10.5 93 0.6 SSW 13 17 7 9 1023.8 1023.8 0.8
08/05:00pm 12.5 9.1 10.7 89 0.9 SSW 19 22 10 12 1023.9 1023.9 0.8
08/04:30pm 13.1 10.7 11.3 89 1.0 SSW 15 22 8 12 1023.7 1023.7 0.8
08/04:00pm 13.0 11.4 11.6 91 0.7 SSW 11 17 6 9 1023.5 1023.5 0.8
08/03:55pm 13.3 11.4 11.9 91 0.7 S 13 17 7 9 1023.3 1023.4 0.8
08/03:37pm 12.9 9.2 10.1 83 1.4 SW 20 28 11 15 1023.2 1023.3 0.6
08/03:30pm 14.5 11.5 10.7 78 2.0 SW 17 24 9 13 1023.2 1023.3 0.0
08/03:00pm 14.4 12.5 10.4 77 2.1 SW 11 15 6 8 1023.0 1023.1 0.0
08/02:30pm 15.2 11.5 10.0 71 2.7 SW 20 30 11 16 1023.0 1023.1 0.0
08/02:00pm 15.0 11.2 8.9 67 3.1 SSW 19 26 10 14 1022.8 1022.9 0.0
08/01:30pm 15.9 12.7 8.6 62 3.7 SSW 15 19 8 10 1022.8 1022.9 0.0
08/01:00pm 16.6 13.8 8.6 59 4.1 S 13 19 7 10 1023.0 1023.1 0.0
08/12:30pm 15.8 12.5 8.1 60 3.9 SSW 15 20 8 11 1023.6 1023.6 0.0
08/12:00pm 15.4 11.3 7.7 60 3.8 SSW 19 24 10 13 1024.1 1024.1 0.0
08/11:30am 15.6 12.1 8.8 64 3.5 S 17 22 9 12 1024.4 1024.4 0.0
08/11:00am 15.0 13.7 11.2 78 2.0 SSW 9 15 5 8 1024.5 1024.5 0.0
08/10:30am 12.8 12.7 12.2 96 0.3 SSW 4 9 2 5 1024.7 1024.7 0.0
08/10:00am 12.1 12.7 11.9 99 0.1 CALM 0 0 0 0 1024.6 1024.6 0.0
08/09:30am 10.1 10.2 10.0 99 0.1 CALM 0 0 0 0 1024.4 1024.4 0.0
08/09:00am 9.3 8.0 9.2 99 0.0 SE 6 9 3 5 1024.2 1024.2 -
08/08:30am 8.8 6.8 8.7 99 0.0 ESE 9 9 5 5 1023.8 1023.8 -
08/08:00am 8.0 5.4 7.9 99 0.0 SSW 11 15 6 8 1023.5 1023.5 -
08/07:30am 5.9 3.6 5.8 99 0.0 SE 7 11 4 6 1022.9 1023.0 -
08/07:00am 6.8 4.7 6.7 99 0.0 ENE 7 7 4 4 1022.5 1022.6 -
08/06:30am 6.9 4.5 6.8 99 0.0 ENE 9 9 5 5 1022.1 1022.2 -
08/06:00am 7.7 5.8 7.6 99 0.0 NE 7 9 4 5 1022.0 1022.1 -
08/05:30am 7.1 5.6 7.0 99 0.0 E 4 13 2 7 1022.1 1022.2 -
08/05:00am 6.6 5.4 6.5 99 0.0 SE 2 7 1 4 1021.9 1022.0 -
08/04:30am 5.6 3.2 5.2 97 0.2 ESE 7 11 4 6 1021.7 1021.8 -
08/04:00am 6.3 3.7 6.0 98 0.1 NE 9 11 5 6 1021.6 1021.7 -
08/03:30am 6.4 4.4 6.1 98 0.1 ESE 6 9 3 5 1021.8 1021.9 -
08/03:00am 6.7 4.5 6.3 97 0.2 NE 7 11 4 6 1021.8 1021.9 0.0
08/02:30am 6.5 4.2 5.9 96 0.3 ENE 7 11 4 6 1021.8 1021.9 -
08/02:00am 6.5 5.2 5.8 95 0.3 SE 2 7 1 4 1021.9 1022.0 -
08/01:30am 7.2 5.0 6.3 94 0.4 E 7 11 4 6 1021.6 1021.7 -
08/01:00am 7.2 5.2 6.1 93 0.5 NE 6 9 3 5 1021.5 1021.6 -
08/12:30am 6.6 4.2 5.1 90 0.7 NNW 7 9 4 5 1021.5 1021.6 -
08/12:00am 7.1 4.3 5.1 87 0.9 SSE 9 11 5 6 1021.6 1021.7 -
 
Date/Time
WST
Temp
°C
App
Temp
°C
Dew
Point
°C
Rel
Hum
%
Delta-T
°C
Wind Press
QNH
hPa
Press
MSL
hPa
Rain since
9am
mm
Dir  Spd
km/h
Gust
km/h
Spd
kts
Gust
kts
07/11:30pm 9.2 8.4 6.3 82 1.3 CALM 0 11 0 6 1021.5 1021.6 -
07/11:00pm 10.3 8.4 7.4 82 1.4 WSW 7 9 4 5 1021.5 1021.6 -
07/10:30pm 8.5 7.3 6.6 88 0.9 SSW 2 13 1 7 1021.5 1021.6 -
07/10:00pm 8.9 7.7 6.3 84 1.2 SSW 2 6 1 3 1021.5 1021.6 -
07/09:30pm 10.5 8.1 7.2 80 1.6 W 9 11 5 6 1021.3 1021.4 -
07/09:00pm 11.2 8.7 8.2 82 1.5 WSW 11 13 6 7 1021.0 1021.1 3.0
07/08:30pm 12.1 9.7 10.0 87 1.1 WSW 13 15 7 8 1020.8 1020.9 -
07/08:00pm 12.7 10.7 11.6 93 0.6 SW 13 19 7 10 1020.6 1020.7 -
07/07:30pm 12.6 10.8 12.1 97 0.3 SW 13 17 7 9 1020.3 1020.4 -
07/07:01pm 12.8 11.1 12.5 98 0.2 SW 13 17 7 9 1020.2 1020.3 -
07/07:00pm 12.8 11.1 12.5 98 0.2 SW 13 17 7 9 1020.2 1020.3 -
07/06:39pm 13.0 10.6 12.5 97 0.3 WSW 17 22 9 12 1020.2 1020.3 -
07/06:30pm 12.9 10.8 12.3 96 0.3 W 15 20 8 11 1020.0 1020.1 -
07/06:25pm 12.8 10.6 12.2 96 0.3 WNW 15 19 8 10 1020.0 1020.1 -
07/06:00pm 13.1 10.0 11.5 90 0.8 WSW 19 24 10 13 1020.0 1020.1 -
07/05:54pm 13.2 10.4 11.3 88 1.0 W 17 22 9 12 1019.8 1019.9 -
07/05:30pm 13.8 9.2 9.8 77 2.1 WSW 24 35 13 19 1019.7 1019.8 -
07/05:00pm 15.2 13.2 10.2 72 2.6 NW 11 17 6 9 1019.2 1019.3 -
07/04:30pm 15.8 12.6 9.9 68 3.1 WNW 17 26 9 14 1019.3 1019.4 -
07/04:00pm 15.9 11.7 9.6 66 3.3 WNW 22 30 12 16 1019.4 1019.5 -
07/03:30pm 15.7 12.3 10.5 71 2.7 WNW 19 26 10 14 1019.4 1019.5 -
07/03:00pm 15.5 12.7 11.5 77 2.1 NW 17 24 9 13 1019.5 1019.6 -
07/02:30pm 13.9 10.3 10.7 81 1.7 NW 20 32 11 17 1019.7 1019.8 -
07/02:00pm 16.1 11.8 9.3 64 3.5 WNW 22 30 12 16 1019.5 1019.6 -
07/01:30pm 16.1 11.6 8.6 61 3.8 WNW 22 32 12 17 1019.8 1019.9 -
07/01:00pm 15.7 11.7 8.2 61 3.8 W 19 28 10 15 1020.2 1020.3 -
07/12:30pm 16.1 13.3 10.0 67 3.2 NW 15 20 8 11 1020.5 1020.6 -
07/12:00pm 14.9 12.3 9.3 69 2.9 W 13 20 7 11 1021.1 1021.2 -
07/11:30am 14.2 10.1 8.6 69 2.8 WSW 20 30 11 16 1021.5 1021.6 -
07/11:00am 14.6 11.7 9.6 72 2.6 W 15 19 8 10 1021.6 1021.7 -
07/10:30am 13.8 12.0 9.6 76 2.2 W 9 13 5 7 1021.7 1021.8 0.0
07/10:00am 13.7 10.8 9.7 77 2.0 SW 15 22 8 12 1021.8 1021.9 0.0
07/09:30am 13.4 9.3 8.5 72 2.4 W 20 28 11 15 1021.5 1021.6 0.0
07/09:00am 13.0 10.1 8.1 72 2.4 WNW 13 15 7 8 1021.1 1021.2 -
07/08:30am 13.0 9.3 8.1 72 2.4 W 17 24 9 13 1020.9 1021.0 -
07/08:00am 12.3 10.1 9.5 83 1.4 WNW 11 15 6 8 1020.5 1020.6 -
07/07:30am 12.0 10.6 9.4 84 1.3 W 7 11 4 6 1020.3 1020.4 -
07/07:00am 12.1 10.6 9.3 83 1.4 W 7 11 4 6 1020.1 1020.2 -
07/06:30am 12.4 9.3 10.3 87 1.1 WSW 17 28 9 15 1019.9 1020.0 -
07/06:00am 12.0 10.9 10.7 92 0.7 W 7 9 4 5 1019.4 1019.5 -
07/05:30am 12.1 10.3 11.0 93 0.6 WSW 11 15 6 8 1019.3 1019.4 -
07/05:00am 11.7 10.3 10.8 94 0.5 WNW 9 11 5 6 1019.2 1019.3 -
07/04:30am 12.0 9.5 10.9 93 0.6 W 15 20 8 11 1019.0 1019.1 -
07/04:00am 12.3 9.8 11.2 93 0.6 W 15 22 8 12 1019.0 1019.1 -
07/03:30am 12.2 9.4 11.3 94 0.5 W 17 26 9 14 1018.9 1019.0 -
07/03:00am 12.2 8.7 10.9 92 0.7 W 20 30 11 16 1018.7 1018.8 0.8
07/02:30am 12.3 9.4 11.0 92 0.7 W 17 24 9 13 1018.6 1018.7 -
07/02:00am 12.4 8.9 11.0 91 0.7 W 20 30 11 16 1018.4 1018.5 -
07/01:30am 12.7 9.3 11.3 91 0.7 W 20 39 11 21 1018.2 1018.3 -
07/01:00am 12.6 9.2 11.3 92 0.7 W 20 32 11 17 1018.1 1018.1 -
07/12:30am 12.8 9.5 11.5 92 0.7 W 20 28 11 15 1017.9 1017.9 -
07/12:00am 12.9 8.8 11.6 92 0.7 W 24 35 13 19 1017.7 1017.7 -
 
Date/Time
WST
Temp
°C
App
Temp
°C
Dew
Point
°C
Rel
Hum
%
Delta-T
°C
Wind Press
QNH
hPa
Press
MSL
hPa
Rain since
9am
mm
Dir  Spd
km/h
Gust
km/h
Spd
kts
Gust
kts
06/11:30pm 12.9 9.3 12.0 94 0.5 W 22 30 12 16 1017.8 1017.8 -
06/11:00pm 13.0 9.9 11.7 92 0.7 W 19 32 10 17 1017.8 1017.8 -
06/10:30pm 13.1 8.6 11.5 90 0.8 W 26 35 14 19 1017.4 1017.4 -
06/10:00pm 13.2 9.3 10.9 86 1.2 W 22 30 12 16 1017.2 1017.2 -
06/09:30pm 13.3 8.4 11.4 88 1.0 WNW 28 37 15 20 1017.1 1017.1 -
06/09:00pm 13.3 9.7 11.9 91 0.7 W 22 28 12 15 1016.9 1016.9 -
06/08:30pm 13.4 9.2 12.3 93 0.6 W 26 39 14 21 1016.7 1016.7 -
06/08:00pm 13.4 9.1 12.1 92 0.7 WNW 26 37 14 20 1016.6 1016.6 -
06/07:30pm 13.7 9.8 12.1 90 0.9 WNW 24 35 13 19 1016.0 1016.0 -
06/07:00pm 13.7 8.9 11.8 88 1.0 WNW 28 39 15 21 1015.6 1015.6 -
06/06:30pm 14.0 8.5 11.7 86 1.2 WNW 32 43 17 23 1015.0 1015.0 -
06/06:00pm 13.5 7.9 11.4 87 1.1 WNW 32 44 17 24 1014.8 1014.8 -
06/05:30pm 13.9 9.2 10.7 81 1.7 W 26 41 14 22 1014.3 1014.3 -
06/05:00pm 14.5 7.7 10.5 77 2.1 WNW 37 50 20 27 1013.9 1013.9 -
06/04:30pm 13.9 6.7 10.5 80 1.8 WNW 39 56 21 30 1013.6 1013.6 -
06/04:21pm 14.9 8.8 10.3 74 2.4 WNW 33 54 18 29 1013.5 1013.5 -
06/04:00pm 14.5 7.3 10.7 78 2.0 W 39 48 21 26 1013.3 1013.3 -
06/03:30pm 16.0 9.1 10.3 69 3.0 W 37 52 20 28 1012.5 1012.5 -
06/03:12pm 16.0 9.9 10.5 70 2.9 WNW 33 52 18 28 1012.3 1012.3 -
06/03:00pm 15.6 8.8 10.8 73 2.6 W 37 48 20 26 1012.4 1012.4 -
06/02:30pm 15.8 10.5 11.2 74 2.5 W 30 46 16 25 1012.0 1012.0 3.2
06/02:00pm 16.0 10.8 11.6 75 2.4 WNW 30 41 16 22 1011.8 1011.8 3.2
06/01:30pm 15.4 10.8 12.2 81 1.7 WNW 28 43 15 23 1011.8 1011.8 3.2
06/01:00pm 14.6 11.0 13.0 90 0.9 WNW 24 33 13 18 1012.0 1012.0 3.2
06/12:30pm 14.3 9.1 12.9 91 0.8 WNW 32 43 17 23 1012.0 1012.0 3.0
06/12:00pm 15.1 11.3 13.5 90 0.9 NW 26 33 14 18 1011.7 1011.7 0.8
06/11:30am 13.5 7.7 11.6 88 1.0 NW 33 48 18 26 1012.2 1012.2 0.6
06/11:00am 14.6 8.8 11.4 81 1.7 NW 33 54 18 29 1011.7 1011.7 0.2
06/10:30am 15.1 7.0 9.9 71 2.7 NW 43 63 23 34 1012.1 1012.1 0.0
06/10:17am 15.2 7.2 10.4 73 2.5 NW 43 61 23 33 1011.8 1011.8 0.0
06/10:00am 14.8 7.6 9.0 68 3.0 NW 37 54 20 29 1011.9 1011.9 0.0
06/09:30am 14.6 6.5 8.8 68 2.9 NW 41 59 22 32 1012.0 1012.0 0.0
06/09:00am 13.6 6.2 10.0 79 1.9 NW 39 57 21 31 1011.9 1011.9 19.8
06/08:30am 13.5 7.3 10.1 80 1.8 WNW 33 61 18 33 1011.6 1011.6 19.6
06/08:24am 13.5 6.0 9.6 77 2.0 NW 39 61 21 33 1011.9 1011.9 19.4
06/08:22am 14.0 6.5 9.4 74 2.4 NW 39 61 21 33 1011.8 1011.8 19.0
06/08:13am 14.9 9.1 11.5 80 1.8 NNW 33 52 18 28 1011.4 1011.4 18.8
06/08:12am 14.9 9.1 11.5 80 1.8 NNW 33 46 18 25 1011.4 1011.4 18.8
06/08:01am 13.8 6.6 10.4 80 1.8 NNW 39 67 21 36 1011.4 1011.4 18.8
06/08:00am 13.8 6.1 10.2 79 1.9 NNW 41 67 22 36 1011.4 1011.4 18.8
06/07:30am 13.9 7.8 9.9 77 2.1 NW 32 57 17 31 1011.3 1011.3 18.2
06/07:27am 14.7 9.6 10.5 76 2.2 NW 28 57 15 31 1011.6 1011.6 17.8
06/07:00am 15.0 9.5 10.6 75 2.3 NNW 30 41 16 22 1011.2 1011.2 17.8
06/06:44am 14.8 10.6 11.0 78 2.0 NNW 24 32 13 17 1011.2 1011.2 17.8
06/06:30am 13.7 8.4 9.9 78 2.0 NW 28 50 15 27 1011.3 1011.3 17.6
06/06:26am 14.3 9.1 10.3 77 2.1 NNW 28 50 15 27 1011.3 1011.3 17.6
06/06:24am 14.8 9.8 10.8 77 2.1 NNW 28 50 15 27 1011.3 1011.3 16.6
06/06:00am 14.9 10.5 10.5 75 2.3 NW 24 39 13 21 1011.2 1011.2 16.4
06/05:30am 14.6 11.6 10.6 77 2.1 NW 17 26 9 14 1011.2 1011.2 16.4
06/05:00am 14.8 11.3 10.8 77 2.1 WNW 20 35 11 19 1011.1 1011.1 16.4
06/04:30am 14.7 11.4 10.9 78 2.0 NW 19 28 10 15 1011.2 1011.2 16.4
06/04:00am 14.5 11.3 11.3 81 1.7 NW 19 24 10 13 1011.1 1011.1 16.4
06/03:30am 14.7 11.9 13.2 91 0.8 NNW 20 26 11 14 1011.3 1011.3 16.4
06/03:00am 14.0 12.1 13.1 94 0.5 N 15 20 8 11 1011.6 1011.6 16.2
06/02:30am 13.3 10.8 12.4 94 0.5 N 17 20 9 11 1011.2 1011.2 16.2
06/02:00am 13.7 10.6 13.5 99 0.1 N 22 30 12 16 1011.5 1011.5 16.2
06/01:56am 13.9 10.5 13.7 99 0.1 NNW 24 30 13 16 1011.6 1011.6 16.2
06/01:30am 13.2 8.1 13.0 99 0.1 NW 32 46 17 25 1011.9 1011.9 15.8
06/01:18am 13.9 8.3 13.4 97 0.3 NW 35 46 19 25 1011.8 1011.8 15.2
06/01:14am 14.0 9.4 13.4 96 0.3 NNW 30 46 16 25 1011.6 1011.6 15.0
06/01:00am 14.2 10.6 13.2 94 0.6 NNE 24 33 13 18 1011.4 1011.4 15.0
06/12:58am 14.2 11.0 13.2 94 0.6 NNE 22 32 12 17 1011.5 1011.5 15.0
06/12:50am 14.3 9.8 12.7 90 0.9 N 28 46 15 25 1011.6 1011.6 15.0
06/12:30am 14.8 11.7 14.5 98 0.2 NNE 24 39 13 21 1011.8 1011.8 15.0
06/12:00am 13.5 11.7 13.3 99 0.1 NNE 15 20 8 11 1012.2 1012.2 15.0
 
Date/Time
WST
Temp
°C
App
Temp
°C
Dew
Point
°C
Rel
Hum
%
Delta-T
°C
Wind Press
QNH
hPa
Press
MSL
hPa
Rain since
9am
mm
Dir  Spd
km/h
Gust
km/h
Spd
kts
Gust
kts
05/11:30pm 13.5 10.8 13.0 97 0.3 NNE 19 24 10 13 1011.9 1011.9 14.8
05/11:00pm 13.8 10.7 13.3 97 0.3 NE 22 33 12 18 1012.7 1012.7 14.4
05/10:30pm 13.9 12.6 13.7 99 0.1 NE 13 17 7 9 1012.7 1012.7 13.4

Other formats

Comma delimited format used in spreadsheet applications
http://www.bom.gov.au/fwo/IDW60801/IDW60801.95611.axf

JavaScript Object Notation format (JSON) in row-major order
http://www.bom.gov.au/fwo/IDW60801/IDW60801.95611.json

Data quality

Most of these data are generated automatically and are frequently updated. Quality checks on data are not normally performed. It is possible for incorrect values to appear. Refer to information at About Latest Weather Observations and please check the disclaimer before using these data.